createdAt,value
2023-01-04T00:01:22.971Z,100.00
2023-01-04T00:03:50.469Z,100.00
2023-01-04T00:06:17.731Z,100.00
2023-01-04T00:08:44.734Z,100.00
2023-01-04T00:11:17.557Z,100.00
2023-01-04T00:13:45.988Z,100.00
2023-01-04T00:16:22.969Z,100.00
2023-01-04T00:18:51.435Z,100.00
2023-01-04T00:21:27.697Z,100.00
2023-01-04T00:23:58.162Z,100.00
2023-01-04T00:26:29.077Z,100.00
2023-01-04T00:29:06.114Z,100.00
2023-01-04T00:31:34.852Z,100.00
2023-01-04T00:34:04.085Z,100.00
2023-01-04T00:36:32.499Z,100.00
2023-01-04T00:39:08.189Z,100.00
2023-01-04T00:42:02.926Z,100.00
2023-01-04T00:44:32.229Z,100.00
2023-01-04T00:47:01.431Z,100.00
2023-01-04T00:49:29.945Z,100.00
2023-01-04T00:51:57.448Z,100.00
2023-01-04T00:54:25.305Z,100.00
2023-01-04T00:56:52.512Z,100.00
2023-01-04T00:59:21.981Z,100.00
2023-01-04T01:01:49.865Z,100.00
2023-01-04T01:04:20.287Z,100.00
2023-01-04T01:06:47.855Z,100.00
2023-01-04T01:09:15.828Z,100.00
2023-01-04T01:11:42.939Z,100.00
2023-01-04T01:14:17.720Z,100.00
2023-01-04T01:16:55.047Z,100.00
2023-01-04T01:19:25.016Z,100.00
2023-01-04T01:21:51.852Z,100.00
2023-01-04T01:24:19.843Z,100.00
2023-01-04T01:26:47.056Z,100.00
2023-01-04T01:29:13.901Z,100.00
2023-01-04T01:31:41.215Z,100.00
2023-01-04T01:34:08.555Z,100.00
2023-01-04T01:36:35.450Z,100.00
2023-01-04T01:39:02.389Z,100.00
2023-01-04T01:41:33.240Z,100.00
2023-01-04T01:44:06.904Z,100.00
2023-01-04T01:46:49.141Z,100.00
2023-01-04T01:49:34.331Z,100.00
2023-01-04T01:52:08.106Z,100.00
2023-01-04T01:54:40.207Z,100.00
2023-01-04T01:57:11.025Z,100.00
2023-01-04T01:59:42.830Z,100.00
2023-01-04T02:02:11.305Z,100.00
2023-01-04T02:04:43.514Z,100.00
2023-01-04T02:07:12.082Z,100.00
2023-01-04T02:09:39.905Z,100.00
2023-01-04T02:12:12.197Z,100.00
2023-01-04T02:14:40.445Z,100.00
2023-01-04T02:17:36.535Z,100.00
2023-01-04T02:20:10.349Z,100.00
2023-01-04T02:23:10.289Z,100.00
2023-01-04T02:26:04.139Z,100.00
2023-01-04T02:29:27.227Z,100.00
2023-01-04T02:32:40.035Z,100.00
2023-01-04T02:35:44.392Z,100.00
2023-01-04T02:38:48.944Z,100.00
2023-01-04T02:41:21.473Z,100.00
2023-01-04T02:44:25.095Z,100.00
2023-01-04T02:47:02.718Z,100.00
2023-01-04T02:49:47.965Z,100.00
2023-01-04T02:52:15.053Z,100.00
2023-01-04T02:54:43.644Z,100.00
2023-01-04T02:57:48.170Z,100.00
2023-01-04T03:01:03.400Z,100.00
2023-01-04T03:04:08.151Z,100.00
2023-01-04T03:06:55.707Z,100.00
2023-01-04T03:09:28.790Z,99.99
2023-01-04T03:12:30.097Z,99.79
2023-01-04T03:15:09.736Z,99.17
2023-01-04T03:17:57.969Z,99.25
2023-01-04T03:20:29.321Z,98.84
2023-01-04T03:23:18.995Z,98.21
2023-01-04T03:26:12.285Z,97.89
2023-01-04T03:29:00.509Z,97.61
2023-01-04T03:32:01.795Z,97.79
2023-01-04T03:34:47.867Z,98.22
2023-01-04T03:37:33.417Z,97.90
2023-01-04T03:40:44.015Z,97.19
2023-01-04T03:43:37.499Z,97.39
2023-01-04T03:46:32.196Z,96.07
2023-01-04T03:49:22.746Z,96.61
2023-01-04T03:51:52.438Z,96.97
2023-01-04T03:54:45.194Z,96.27
2023-01-04T03:57:13.230Z,97.15
2023-01-04T03:59:46.347Z,97.24
2023-01-04T04:02:14.344Z,96.83
2023-01-04T04:05:00.596Z,97.13
2023-01-04T04:07:46.534Z,96.12
2023-01-04T04:10:13.336Z,96.41
2023-01-04T04:12:40.178Z,95.64
2023-01-04T04:15:07.676Z,95.69
2023-01-04T04:17:34.465Z,95.48
2023-01-04T04:20:01.256Z,95.77
2023-01-04T04:22:28.187Z,97.01
2023-01-04T04:24:55.008Z,97.12
2023-01-04T04:27:21.805Z,97.63
2023-01-04T04:29:48.594Z,97.24
2023-01-04T04:32:15.482Z,98.18
2023-01-04T04:34:42.483Z,98.51
2023-01-04T04:37:09.686Z,98.73
2023-01-04T04:39:36.473Z,98.60
2023-01-04T04:42:03.284Z,98.89
2023-01-04T04:44:30.151Z,99.11
2023-01-04T04:46:56.974Z,98.38
2023-01-04T04:49:23.823Z,98.50
2023-01-04T04:51:50.700Z,99.00
2023-01-04T04:54:21.074Z,99.00
2023-01-04T04:56:49.533Z,98.26
2023-01-04T04:59:16.811Z,99.28
2023-01-04T05:01:43.937Z,99.18
2023-01-04T05:04:16.290Z,99.24
2023-01-04T05:06:44.468Z,99.39
2023-01-04T05:09:12.808Z,99.66
2023-01-04T05:11:59.163Z,99.44
2023-01-04T05:14:26.424Z,99.67
2023-01-04T05:16:53.683Z,100.00
2023-01-04T05:19:21.501Z,100.00
2023-01-04T05:21:48.284Z,100.00
2023-01-04T05:24:15.158Z,100.00
2023-01-04T05:26:42.010Z,100.00
2023-01-04T05:29:28.820Z,100.00
2023-01-04T05:31:55.877Z,100.00
2023-01-04T05:34:22.774Z,100.00
2023-01-04T05:36:49.596Z,100.00
2023-01-04T05:39:16.396Z,100.00
2023-01-04T05:42:01.739Z,100.00
2023-01-04T05:44:28.545Z,100.00
2023-01-04T05:46:55.420Z,100.00
2023-01-04T05:49:22.255Z,100.00
2023-01-04T05:51:49.138Z,100.00
2023-01-04T05:54:21.170Z,100.00
2023-01-04T05:56:48.447Z,100.00
2023-01-04T05:59:16.115Z,100.00
2023-01-04T06:01:43.131Z,100.00
2023-01-04T06:04:10.098Z,100.00
2023-01-04T06:06:37.081Z,100.00
2023-01-04T06:09:03.968Z,100.00
2023-01-04T06:11:30.781Z,100.00
2023-01-04T06:13:57.946Z,100.00
2023-01-04T06:16:24.871Z,100.00
2023-01-04T06:18:51.770Z,100.00
2023-01-04T06:21:18.596Z,99.96
2023-01-04T06:23:45.488Z,99.07
2023-01-04T06:26:12.353Z,99.04
2023-01-04T06:28:41.128Z,98.75
2023-01-04T06:31:10.488Z,99.46
2023-01-04T06:33:38.041Z,98.19
2023-01-04T06:36:06.698Z,98.08
2023-01-04T06:38:34.305Z,98.01
2023-01-04T06:41:01.274Z,97.79
2023-01-04T06:43:28.165Z,97.27
2023-01-04T06:45:55.077Z,98.11
2023-01-04T06:48:22.004Z,98.27
2023-01-04T06:50:48.836Z,97.69
2023-01-04T06:53:15.658Z,97.29
2023-01-04T06:55:44.992Z,96.74
2023-01-04T06:58:11.946Z,96.46
2023-01-04T07:00:38.866Z,97.05
2023-01-04T07:03:14.042Z,96.35
2023-01-04T07:05:43.349Z,97.09
2023-01-04T07:08:11.850Z,96.70
2023-01-04T07:10:39.161Z,96.95
2023-01-04T07:13:06.799Z,95.93
2023-01-04T07:15:38.656Z,96.15
2023-01-04T07:18:08.837Z,96.25
2023-01-04T07:20:37.168Z,95.80
2023-01-04T07:23:05.512Z,94.66
2023-01-04T07:25:32.468Z,94.68
2023-01-04T07:27:59.282Z,95.06
2023-01-04T07:30:26.350Z,94.57
2023-01-04T07:32:54.932Z,95.54
2023-01-04T07:35:22.738Z,95.21
2023-01-04T07:37:57.591Z,95.33
2023-01-04T07:40:25.942Z,95.08
2023-01-04T07:42:59.548Z,95.08
2023-01-04T07:45:27.537Z,96.20
2023-01-04T07:47:54.411Z,95.79
2023-01-04T07:50:21.310Z,96.35
2023-01-04T07:52:48.135Z,96.13
2023-01-04T07:55:14.958Z,97.61
2023-01-04T07:57:41.761Z,97.60
2023-01-04T08:00:11.445Z,97.78
2023-01-04T08:02:38.738Z,97.76
2023-01-04T08:05:06.384Z,97.17
2023-01-04T08:07:33.381Z,98.16
2023-01-04T08:10:00.239Z,97.09
2023-01-04T08:12:27.289Z,97.44
2023-01-04T08:14:54.139Z,97.63
2023-01-04T08:17:20.946Z,97.60
2023-01-04T08:19:47.824Z,97.02
2023-01-04T08:22:14.685Z,96.99
2023-01-04T08:24:41.993Z,97.52
2023-01-04T08:27:08.838Z,97.18
2023-01-04T08:29:35.830Z,98.10
2023-01-04T08:32:03.500Z,98.01
2023-01-04T08:34:32.096Z,98.25
2023-01-04T08:37:04.277Z,97.62
2023-01-04T08:39:35.294Z,97.14
2023-01-04T08:42:14.510Z,97.57
2023-01-04T08:44:47.613Z,97.32
2023-01-04T08:47:14.479Z,97.87
2023-01-04T08:49:41.778Z,97.57
2023-01-04T08:52:09.967Z,97.97
2023-01-04T08:54:36.865Z,97.08
2023-01-04T08:57:03.820Z,96.95
2023-01-04T08:59:30.670Z,97.57
2023-01-04T09:02:04.972Z,97.22
2023-01-04T09:04:32.787Z,97.50
2023-01-04T09:06:59.631Z,97.67
2023-01-04T09:09:26.505Z,97.17
2023-01-04T09:11:53.411Z,97.52
2023-01-04T09:14:20.384Z,98.07
2023-01-04T09:16:47.318Z,97.94
2023-01-04T09:19:21.367Z,97.30
2023-01-04T09:21:48.951Z,98.16
2023-01-04T09:24:15.934Z,97.70
2023-01-04T09:26:42.839Z,97.49
2023-01-04T09:29:11.289Z,98.25
2023-01-04T09:31:38.232Z,97.97
2023-01-04T09:34:14.778Z,98.45
2023-01-04T09:36:44.130Z,98.32
2023-01-04T09:39:18.686Z,98.01
2023-01-04T09:42:03.192Z,97.65
2023-01-04T09:45:21.988Z,97.68
2023-01-04T09:47:50.131Z,96.94
2023-01-04T09:50:51.792Z,96.43
2023-01-04T09:53:47.520Z,95.64
2023-01-04T09:56:36.259Z,95.84
2023-01-04T09:59:11.145Z,95.30
2023-01-04T10:01:54.212Z,95.84
2023-01-04T10:04:36.770Z,95.91
2023-01-04T10:07:05.383Z,95.83
2023-01-04T10:09:33.741Z,95.20
2023-01-04T10:12:29.737Z,94.81
2023-01-04T10:15:34.850Z,95.28
2023-01-04T10:21:54.103Z,95.25
2023-01-04T10:24:45.573Z,96.33
2023-01-04T10:27:54.315Z,96.22
2023-01-04T10:30:40.782Z,95.66
2023-01-04T10:33:31.219Z,95.54
2023-01-04T10:35:58.477Z,95.39
2023-01-04T10:38:30.765Z,96.05
2023-01-04T10:41:02.983Z,96.21
2023-01-04T10:44:11.815Z,95.74
2023-01-04T10:47:09.864Z,95.99
2023-01-04T10:50:11.066Z,96.74
2023-01-04T10:52:48.120Z,96.76
2023-01-04T10:55:26.152Z,97.03
2023-01-04T10:58:00.966Z,97.34
2023-01-04T11:01:02.668Z,97.52
2023-01-04T11:03:45.814Z,97.34
2023-01-04T11:06:41.100Z,97.56
2023-01-04T11:09:25.443Z,98.01
2023-01-04T11:11:57.391Z,97.97
2023-01-04T11:14:25.398Z,97.54
2023-01-04T11:17:00.017Z,97.94
2023-01-04T11:19:28.960Z,97.73
2023-01-04T11:22:05.784Z,97.58
2023-01-04T11:24:34.481Z,97.54
2023-01-04T11:27:08.062Z,96.84
2023-01-04T11:29:52.754Z,97.40
2023-01-04T11:33:07.384Z,97.14
2023-01-04T11:35:48.365Z,97.09
2023-01-04T11:38:24.933Z,96.95
2023-01-04T11:41:16.782Z,96.81
2023-01-04T11:44:01.766Z,96.70
2023-01-04T11:46:30.366Z,96.88
2023-01-04T11:48:57.717Z,96.20
2023-01-04T11:51:27.144Z,95.82
2023-01-04T11:54:02.937Z,95.58
2023-01-04T11:56:34.950Z,95.05
2023-01-04T11:59:25.300Z,95.09
2023-01-04T12:05:28.747Z,94.51
2023-01-04T12:07:58.041Z,94.39
2023-01-04T12:10:27.656Z,94.79
2023-01-04T12:12:57.360Z,94.70
2023-01-04T12:15:49.700Z,95.30
2023-01-04T12:18:24.954Z,95.08
2023-01-04T12:20:52.151Z,94.57
2023-01-04T12:23:20.435Z,94.78
2023-01-04T12:25:51.408Z,94.54
2023-01-04T12:28:43.049Z,94.53
2023-01-04T12:31:22.391Z,95.26
2023-01-04T12:33:56.169Z,94.97
2023-01-04T12:36:38.188Z,94.56
2023-01-04T12:39:13.915Z,94.17
2023-01-04T12:41:40.768Z,94.59
2023-01-04T12:44:46.594Z,94.71
2023-01-04T12:47:34.626Z,95.15
2023-01-04T12:50:14.566Z,94.89
2023-01-04T12:55:32.863Z,95.75
2023-01-04T12:58:03.250Z,95.46
2023-01-04T13:00:51.912Z,95.75
2023-01-04T13:03:20.389Z,95.44
2023-01-04T13:06:03.867Z,95.88
2023-01-04T13:08:33.248Z,95.91
2023-01-04T13:11:03.124Z,95.28
2023-01-04T13:13:38.716Z,95.09
2023-01-04T13:16:31.940Z,95.00
2023-01-04T13:19:02.922Z,94.28
2023-01-04T13:21:42.654Z,93.37
2023-01-04T13:24:22.192Z,93.37
2023-01-04T13:26:51.096Z,92.34
2023-01-04T13:29:46.247Z,91.69
2023-01-04T13:32:32.091Z,92.12
2023-01-04T13:35:13.915Z,92.17
2023-01-04T13:37:45.986Z,92.02
2023-01-04T13:40:31.507Z,93.58
2023-01-04T13:43:16.274Z,93.84
2023-01-04T13:46:05.553Z,93.61
2023-01-04T13:48:41.415Z,93.25
2023-01-04T13:51:17.627Z,93.25
2023-01-04T13:53:59.790Z,93.00
2023-01-04T13:56:31.643Z,92.92
2023-01-04T13:58:59.104Z,93.73
2023-01-04T14:01:33.418Z,93.30
2023-01-04T14:04:07.040Z,93.58
2023-01-04T14:06:40.456Z,92.75
2023-01-04T14:09:10.689Z,93.21
2023-01-04T14:12:04.082Z,92.43
2023-01-04T14:15:00.753Z,93.13
2023-01-04T14:17:33.942Z,93.49
2023-01-04T14:20:24.139Z,92.63
2023-01-04T14:22:57.572Z,93.58
2023-01-04T14:25:40.441Z,93.70
2023-01-04T14:28:22.481Z,93.05
2023-01-04T14:30:59.989Z,92.88
2023-01-04T14:33:47.456Z,93.26
2023-01-04T14:36:30.377Z,92.88
2023-01-04T14:39:11.713Z,92.58
2023-01-04T14:41:51.558Z,91.67
2023-01-04T14:44:25.259Z,91.79
2023-01-04T14:46:59.219Z,92.29
2023-01-04T14:49:29.789Z,91.74
2023-01-04T14:51:59.686Z,92.22
2023-01-04T14:54:28.745Z,91.90
2023-01-04T14:56:57.465Z,91.77
2023-01-04T14:59:25.620Z,91.97
2023-01-04T15:01:54.277Z,91.38
2023-01-04T15:04:21.672Z,91.51
2023-01-04T15:07:06.748Z,91.38
2023-01-04T15:09:33.635Z,91.37
2023-01-04T15:12:00.579Z,91.13
2023-01-04T15:14:27.491Z,91.61
2023-01-04T15:16:54.342Z,92.11
2023-01-04T15:19:21.795Z,91.97
2023-01-04T15:21:48.627Z,92.00
2023-01-04T15:24:15.484Z,91.39
2023-01-04T15:26:43.408Z,92.73
2023-01-04T15:29:10.247Z,92.36
2023-01-04T15:31:40.350Z,92.46
2023-01-04T15:34:09.775Z,91.83
2023-01-04T15:36:38.701Z,92.44
2023-01-04T15:39:06.639Z,92.07
2023-01-04T15:41:52.001Z,93.03
2023-01-04T15:44:18.854Z,92.79
2023-01-04T15:46:46.455Z,93.48
2023-01-04T15:49:17.161Z,94.38
2023-01-04T15:51:46.006Z,93.87
2023-01-04T15:54:13.590Z,95.11
2023-01-04T15:56:40.432Z,95.25
2023-01-04T15:59:07.270Z,95.51
2023-01-04T16:01:34.192Z,94.73
2023-01-04T16:04:02.449Z,95.77
2023-01-04T16:06:29.447Z,96.66
2023-01-04T16:08:58.818Z,96.26
2023-01-04T16:11:25.970Z,96.19
2023-01-04T16:13:53.634Z,96.19
2023-01-04T16:16:23.789Z,95.58
2023-01-04T16:18:54.211Z,95.74
2023-01-04T16:21:27.224Z,95.74
2023-01-04T16:24:05.181Z,96.89
2023-01-04T16:26:37.189Z,96.66
2023-01-04T16:29:04.319Z,96.79
2023-01-04T16:31:36.726Z,96.59
2023-01-04T16:34:07.485Z,97.30
2023-01-04T16:36:34.308Z,96.47
2023-01-04T16:39:02.239Z,97.06
2023-01-04T16:41:29.405Z,95.78
2023-01-04T16:43:59.462Z,95.33
2023-01-04T16:46:29.223Z,95.78
2023-01-04T16:48:59.895Z,96.38
2023-01-04T16:51:29.200Z,95.76
2023-01-04T16:53:56.197Z,96.74
2023-01-04T16:56:25.033Z,96.22
2023-01-04T16:58:52.516Z,96.49
2023-01-04T17:01:23.459Z,96.82
2023-01-04T17:03:54.903Z,96.78
2023-01-04T17:06:28.301Z,96.62
2023-01-04T17:08:56.981Z,96.93
2023-01-04T17:12:11.496Z,96.71
2023-01-04T17:14:13.915Z,96.50
2023-01-04T17:16:41.075Z,96.58
2023-01-04T17:19:07.980Z,96.30
2023-01-04T17:21:35.637Z,96.63
2023-01-04T17:24:03.553Z,96.82
2023-01-04T17:26:32.371Z,96.45
2023-01-04T17:29:01.011Z,97.44
2023-01-04T17:31:32.361Z,97.07
2023-01-04T17:33:59.818Z,97.09
2023-01-04T17:36:26.985Z,98.60
2023-01-04T17:38:53.984Z,97.70
2023-01-04T17:41:24.300Z,98.81
2023-01-04T17:44:00.101Z,98.26
2023-01-04T17:46:31.830Z,98.23
2023-01-04T17:49:23.039Z,99.64
2023-01-04T17:51:53.179Z,99.74
2023-01-04T17:54:21.123Z,99.94
2023-01-04T17:56:48.073Z,100.00
2023-01-04T17:59:14.926Z,100.00
2023-01-04T18:01:41.836Z,100.00
2023-01-04T18:04:22.911Z,100.00
2023-01-04T18:06:53.333Z,100.00
2023-01-04T18:09:29.170Z,100.00
2023-01-04T18:11:55.983Z,100.00
2023-01-04T18:14:23.112Z,100.00
2023-01-04T18:16:57.196Z,100.00
2023-01-04T18:19:27.755Z,100.00
2023-01-04T18:21:55.575Z,100.00
2023-01-04T18:24:35.835Z,100.00
2023-01-04T18:27:22.751Z,100.00
2023-01-04T18:29:53.059Z,100.00
2023-01-04T18:32:21.673Z,100.00
2023-01-04T18:34:48.526Z,100.00
2023-01-04T18:37:16.341Z,100.00
2023-01-04T18:39:43.594Z,100.00
2023-01-04T18:42:10.517Z,100.00
2023-01-04T18:44:43.872Z,100.00
2023-01-04T18:47:12.830Z,100.00
2023-01-04T18:49:39.711Z,100.00
2023-01-04T18:52:06.734Z,100.00
2023-01-04T18:54:33.646Z,100.00
2023-01-04T18:57:01.640Z,100.00
2023-01-04T18:59:31.756Z,100.00
2023-01-04T19:02:01.625Z,100.00
2023-01-04T19:04:34.908Z,100.00
2023-01-04T19:07:01.931Z,100.00
2023-01-04T19:09:28.814Z,100.00
2023-01-04T19:11:55.632Z,100.00
2023-01-04T19:14:22.506Z,100.00
2023-01-04T19:16:50.539Z,100.00
2023-01-04T19:19:17.415Z,100.00
2023-01-04T19:21:44.283Z,100.00
2023-01-04T19:24:11.060Z,100.00
2023-01-04T19:26:38.543Z,100.00
2023-01-04T19:29:07.426Z,100.00
2023-01-04T19:31:35.024Z,100.00
2023-01-04T19:34:02.292Z,100.00
2023-01-04T19:36:29.331Z,100.00
2023-01-04T19:38:57.047Z,100.00
2023-01-04T19:41:33.393Z,100.00
2023-01-04T19:44:07.319Z,99.77
2023-01-04T19:46:34.654Z,99.78
2023-01-04T19:49:01.559Z,99.48
2023-01-04T19:51:28.465Z,99.43
2023-01-04T19:53:55.779Z,99.36
2023-01-04T19:56:22.692Z,98.74
2023-01-04T19:58:49.603Z,98.63
2023-01-04T20:01:19.183Z,98.64
2023-01-04T20:03:46.650Z,98.21
2023-01-04T20:06:14.792Z,98.94
2023-01-04T20:08:42.776Z,98.90
2023-01-04T20:11:11.062Z,99.19
2023-01-04T20:13:38.776Z,99.67
2023-01-04T20:16:06.456Z,100.00
2023-01-04T20:18:34.287Z,100.00
2023-01-04T20:21:02.098Z,99.75
2023-01-04T20:23:29.084Z,99.08
2023-01-04T20:25:55.936Z,100.00
2023-01-04T20:28:24.856Z,100.00
2023-01-04T20:31:04.594Z,99.83
2023-01-04T20:33:31.701Z,99.43
2023-01-04T20:36:04.685Z,99.35
2023-01-04T20:38:34.755Z,100.00
2023-01-04T20:41:07.691Z,100.00
2023-01-04T20:43:34.799Z,100.00
2023-01-04T20:46:04.897Z,100.00
2023-01-04T20:48:32.069Z,100.00
2023-01-04T20:50:58.890Z,100.00
2023-01-04T20:53:26.214Z,100.00
2023-01-04T20:55:53.082Z,100.00
2023-01-04T20:58:20.009Z,100.00
2023-01-04T21:00:47.702Z,100.00
2023-01-04T21:03:16.042Z,100.00
2023-01-04T21:05:45.109Z,100.00
2023-01-04T21:08:13.092Z,100.00
2023-01-04T21:10:42.676Z,100.00
2023-01-04T21:13:11.337Z,100.00
2023-01-04T21:15:39.661Z,100.00
2023-01-04T21:18:07.292Z,100.00
2023-01-04T21:20:34.226Z,100.00
2023-01-04T21:23:01.100Z,100.00
2023-01-04T21:25:27.908Z,100.00
2023-01-04T21:27:54.829Z,100.00
2023-01-04T21:30:22.025Z,100.00
2023-01-04T21:32:48.937Z,100.00
2023-01-04T21:35:16.018Z,100.00
2023-01-04T21:37:42.905Z,99.58
2023-01-04T21:40:10.731Z,99.68
2023-01-04T21:42:37.532Z,98.87
2023-01-04T21:45:05.295Z,99.16
2023-01-04T21:47:33.015Z,99.54
2023-01-04T21:49:59.973Z,98.34
2023-01-04T21:52:27.091Z,97.89
2023-01-04T21:54:54.183Z,98.66
2023-01-04T21:57:21.032Z,99.10
2023-01-04T21:59:47.964Z,98.58
2023-01-04T22:02:17.129Z,98.58
2023-01-04T22:04:45.255Z,98.01
2023-01-04T22:07:12.470Z,98.96
2023-01-04T22:09:39.521Z,99.61
2023-01-04T22:12:07.024Z,98.80
2023-01-04T22:14:34.895Z,99.68
2023-01-04T22:17:05.666Z,99.54
2023-01-04T22:19:32.506Z,99.10
2023-01-04T22:21:59.427Z,98.97
2023-01-04T22:24:26.422Z,98.76
2023-01-04T22:26:53.539Z,99.63
2023-01-04T22:29:21.497Z,99.97
2023-01-04T22:31:48.993Z,99.71
2023-01-04T22:34:16.970Z,100.00
2023-01-04T22:36:45.007Z,100.00
2023-01-04T22:39:11.920Z,100.00
2023-01-04T22:41:40.139Z,100.00
2023-01-04T22:44:07.756Z,100.00
2023-01-04T22:46:36.412Z,100.00
2023-01-04T22:49:03.991Z,100.00
2023-01-04T22:51:31.822Z,100.00
2023-01-04T22:54:01.955Z,100.00
2023-01-04T22:56:29.812Z,100.00
2023-01-04T22:58:58.314Z,100.00
2023-01-04T23:01:31.996Z,100.00
2023-01-04T23:04:00.373Z,100.00
2023-01-04T23:06:29.063Z,100.00
2023-01-04T23:08:59.298Z,100.00
2023-01-04T23:11:29.048Z,100.00
2023-01-04T23:13:56.759Z,100.00
2023-01-04T23:16:31.507Z,100.00
2023-01-04T23:19:00.548Z,100.00
2023-01-04T23:21:27.439Z,100.00
2023-01-04T23:23:54.294Z,100.00
2023-01-04T23:26:23.925Z,100.00
2023-01-04T23:28:51.279Z,100.00
2023-01-04T23:31:22.583Z,100.00
2023-01-04T23:33:54.505Z,100.00
2023-01-04T23:36:25.736Z,100.00
2023-01-04T23:38:55.628Z,100.00
2023-01-04T23:41:44.345Z,100.00
2023-01-04T23:44:33.280Z,100.00
2023-01-04T23:49:35.215Z,100.00
2023-01-04T23:52:04.166Z,100.00
2023-01-04T23:54:31.464Z,100.00
2023-01-04T23:57:00.197Z,100.00
2023-01-04T23:59:28.135Z,100.00
